sensor_id;sensor_type;location;lat;lon;timestamp;pressure;altitude;pressure_sealevel;temperature;humidity
40490;BME280;26196;52.302;10.572;2023-02-28T00:03:41;102197.41;;;9.17;46.50
40490;BME280;26196;52.302;10.572;2023-02-28T00:07:42;102195.66;;;9.16;46.49
40490;BME280;26196;52.302;10.572;2023-02-28T00:11:42;102187.81;;;9.13;46.71
40490;BME280;26196;52.302;10.572;2023-02-28T00:15:42;102166.81;;;8.98;46.56
40490;BME280;26196;52.302;10.572;2023-02-28T00:20:01;102191.28;;;9.14;46.38
40490;BME280;26196;52.302;10.572;2023-02-28T00:24:01;102193.00;;;9.09;46.03
40490;BME280;26196;52.302;10.572;2023-02-28T00:28:02;102191.25;;;9.06;46.51
40490;BME280;26196;52.302;10.572;2023-02-28T00:32:37;102195.63;;;9.07;46.21
40490;BME280;26196;52.302;10.572;2023-02-28T00:36:37;102188.63;;;9.03;45.78
40490;BME280;26196;52.302;10.572;2023-02-28T00:40:38;102187.72;;;9.01;46.11
40490;BME280;26196;52.302;10.572;2023-02-28T00:44:38;102171.16;;;8.96;45.72
40490;BME280;26196;52.302;10.572;2023-02-28T00:48:38;102161.53;;;8.89;45.67
40490;BME280;26196;52.302;10.572;2023-02-28T00:52:47;102189.50;;;9.02;46.01
40490;BME280;26196;52.302;10.572;2023-02-28T00:56:49;102192.06;;;8.99;45.25
40490;BME280;26196;52.302;10.572;2023-02-28T01:00:51;102191.19;;;8.97;44.99
40490;BME280;26196;52.302;10.572;2023-02-28T01:04:52;102185.00;;;8.86;45.80
40490;BME280;26196;52.302;10.572;2023-02-28T01:08:53;102185.94;;;8.89;45.84
40490;BME280;26196;52.302;10.572;2023-02-28T01:12:54;102180.66;;;8.83;45.43
40490;BME280;26196;52.302;10.572;2023-02-28T01:16:54;102185.00;;;8.86;45.32
40490;BME280;26196;52.302;10.572;2023-02-28T01:20:57;102187.66;;;8.90;45.28
40490;BME280;26196;52.302;10.572;2023-02-28T01:24:58;102185.03;;;8.87;45.18
40490;BME280;26196;52.302;10.572;2023-02-28T01:28:58;102176.28;;;8.81;45.12
40490;BME280;26196;52.302;10.572;2023-02-28T01:33:09;102181.50;;;8.79;45.01
40490;BME280;26196;52.302;10.572;2023-02-28T01:37:09;102172.75;;;8.72;45.13
40490;BME280;26196;52.302;10.572;2023-02-28T01:41:16;102169.22;;;8.66;44.78
40490;BME280;26196;52.302;10.572;2023-02-28T01:45:27;102165.69;;;8.62;44.64
40490;BME280;26196;52.302;10.572;2023-02-28T01:49:28;102167.41;;;8.60;44.67
40490;BME280;26196;52.302;10.572;2023-02-28T01:53:32;102155.22;;;8.56;44.46
40490;BME280;26196;52.302;10.572;2023-02-28T01:58:06;102161.41;;;8.66;44.58
40490;BME280;26196;52.302;10.572;2023-02-28T02:02:07;102159.63;;;8.62;44.25
40490;BME280;26196;52.302;10.572;2023-02-28T02:06:07;102167.47;;;8.65;44.41
40490;BME280;26196;52.302;10.572;2023-02-28T02:10:20;102168.31;;;8.62;44.77
40490;BME280;26196;52.302;10.572;2023-02-28T02:14:33;102157.84;;;8.59;44.63
40490;BME280;26196;52.302;10.572;2023-02-28T02:32:01;102149.91;;;8.47;44.45
40490;BME280;26196;52.302;10.572;2023-02-28T02:35:46;102145.56;;;8.46;44.18
40490;BME280;26196;52.302;10.572;2023-02-28T02:40:13;102153.38;;;8.40;44.32
40490;BME280;26196;52.302;10.572;2023-02-28T02:44:48;102156.78;;;8.37;44.27
40490;BME280;26196;52.302;10.572;2023-02-28T02:48:50;102153.25;;;8.30;43.99
40490;BME280;26196;52.302;10.572;2023-02-28T02:52:56;102160.19;;;8.27;43.54
40490;BME280;26196;52.302;10.572;2023-02-28T02:57:03;102154.03;;;8.22;44.29
40490;BME280;26196;52.302;10.572;2023-02-28T03:01:04;102163.66;;;8.27;43.87
40490;BME280;26196;52.302;10.572;2023-02-28T03:09:28;102168.94;;;8.37;44.52
40490;BME280;26196;52.302;10.572;2023-02-28T03:14:09;102169.88;;;8.40;44.59
40490;BME280;26196;52.302;10.572;2023-02-28T03:18:34;102170.72;;;8.38;44.54
40490;BME280;26196;52.302;10.572;2023-02-28T03:27:11;102182.84;;;8.32;44.17
40490;BME280;26196;52.302;10.572;2023-02-28T03:35:19;102175.81;;;8.25;44.35
40490;BME280;26196;52.302;10.572;2023-02-28T03:43:50;102181.91;;;8.27;43.67
40490;BME280;26196;52.302;10.572;2023-02-28T03:47:57;102174.03;;;8.23;43.92
40490;BME280;26196;52.302;10.572;2023-02-28T03:52:05;102188.00;;;8.26;44.25
40490;BME280;26196;52.302;10.572;2023-02-28T03:56:11;102175.81;;;8.25;44.57
40490;BME280;26196;52.302;10.572;2023-02-28T04:00:19;102176.66;;;8.23;43.85
40490;BME280;26196;52.302;10.572;2023-02-28T04:04:29;102174.91;;;8.22;44.39
40490;BME280;26196;52.302;10.572;2023-02-28T04:08:29;102170.53;;;8.16;44.10
40490;BME280;26196;52.302;10.572;2023-02-28T04:12:30;102167.00;;;8.13;44.12
40490;BME280;26196;52.302;10.572;2023-02-28T04:16:36;102176.56;;;8.15;43.89
40490;BME280;26196;52.302;10.572;2023-02-28T04:20:36;102163.50;;;8.09;43.95
40490;BME280;26196;52.302;10.572;2023-02-28T04:24:36;102166.94;;;8.08;44.17
40490;BME280;26196;52.302;10.572;2023-02-28T04:28:41;102170.53;;;8.19;44.42
40490;BME280;26196;52.302;10.572;2023-02-28T04:32:41;102173.13;;;8.18;44.38
40490;BME280;26196;52.302;10.572;2023-02-28T04:36:42;102178.28;;;8.13;44.29
40490;BME280;26196;52.302;10.572;2023-02-28T04:40:48;102172.22;;;8.11;44.41
40490;BME280;26196;52.302;10.572;2023-02-28T04:44:48;102189.63;;;8.15;44.12
40490;BME280;26196;52.302;10.572;2023-02-28T04:48:49;102188.78;;;8.18;44.46
40490;BME280;26196;52.302;10.572;2023-02-28T04:52:49;102177.38;;;8.08;44.27
40490;BME280;26196;52.302;10.572;2023-02-28T04:56:50;102172.97;;;8.02;44.16
40490;BME280;26196;52.302;10.572;2023-02-28T05:00:51;102185.19;;;8.06;44.19
40490;BME280;26196;52.302;10.572;2023-02-28T05:04:51;102182.59;;;8.08;44.14
40490;BME280;26196;52.302;10.572;2023-02-28T05:08:52;102182.59;;;8.08;44.32
40490;BME280;26196;52.302;10.572;2023-02-28T05:12:53;102176.44;;;8.03;43.69
40490;BME280;26196;52.302;10.572;2023-02-28T05:16:53;102178.19;;;8.02;43.77
40490;BME280;26196;52.302;10.572;2023-02-28T05:20:53;102184.28;;;8.01;43.84
40490;BME280;26196;52.302;10.572;2023-02-28T05:24:55;102172.97;;;8.01;44.73
40490;BME280;26196;52.302;10.572;2023-02-28T05:28:55;102185.19;;;8.06;44.46
40490;BME280;26196;52.302;10.572;2023-02-28T05:32:56;102184.34;;;8.06;44.65
40490;BME280;26196;52.302;10.572;2023-02-28T05:36:56;102183.44;;;8.04;44.85
40490;BME280;26196;52.302;10.572;2023-02-28T05:40:57;102188.63;;;8.01;44.38
40490;BME280;26196;52.302;10.572;2023-02-28T05:44:57;102179.91;;;7.99;44.75
40490;BME280;26196;52.302;10.572;2023-02-28T05:48:57;102185.16;;;8.02;44.84
40490;BME280;26196;52.302;10.572;2023-02-28T05:53:01;102184.28;;;8.03;45.15
40490;BME280;26196;52.302;10.572;2023-02-28T05:57:01;102179.00;;;7.95;45.20
40490;BME280;26196;52.302;10.572;2023-02-28T06:01:33;102200.88;;;8.09;45.43
40490;BME280;26196;52.302;10.572;2023-02-28T06:05:33;102170.22;;;7.88;45.15
40490;BME280;26196;52.302;10.572;2023-02-28T06:09:34;102205.19;;;8.06;44.98
40490;BME280;26196;52.302;10.572;2023-02-28T06:13:34;102217.38;;;8.07;44.99
40490;BME280;26196;52.302;10.572;2023-02-28T06:17:36;102214.72;;;8.04;45.03
40490;BME280;26196;52.302;10.572;2023-02-28T06:21:38;102212.97;;;8.03;45.08
40490;BME280;26196;52.302;10.572;2023-02-28T06:25:38;102216.47;;;8.03;44.81
40490;BME280;26196;52.302;10.572;2023-02-28T06:29:38;102212.97;;;8.03;45.21
40490;BME280;26196;52.302;10.572;2023-02-28T06:33:43;102219.06;;;8.03;45.23
40490;BME280;26196;52.302;10.572;2023-02-28T06:37:43;102225.09;;;7.99;44.88
40490;BME280;26196;52.302;10.572;2023-02-28T06:41:44;102224.22;;;7.99;44.66
40490;BME280;26196;52.302;10.572;2023-02-28T06:45:45;102232.03;;;7.97;44.55
40490;BME280;26196;52.302;10.572;2023-02-28T06:49:46;102238.09;;;7.95;44.79
40490;BME280;26196;52.302;10.572;2023-02-28T06:53:46;102251.16;;;7.96;44.59
40490;BME280;26196;52.302;10.572;2023-02-28T06:57:46;102239.81;;;7.93;44.48
40490;BME280;26196;52.302;10.572;2023-02-28T07:01:47;102245.06;;;7.96;44.14
40490;BME280;26196;52.302;10.572;2023-02-28T07:05:47;102230.13;;;7.84;43.93
40490;BME280;26196;52.302;10.572;2023-02-28T07:09:48;102238.84;;;7.86;44.35
40490;BME280;26196;52.302;10.572;2023-02-28T07:13:49;102219.56;;;7.70;44.05
40490;BME280;26196;52.302;10.572;2023-02-28T07:17:50;102250.16;;;7.86;43.77
40490;BME280;26196;52.302;10.572;2023-02-28T07:21:51;102236.97;;;7.73;44.32
40490;BME280;26196;52.302;10.572;2023-02-28T07:25:51;102258.06;;;7.93;44.35
40490;BME280;26196;52.302;10.572;2023-02-28T07:29:52;102257.13;;;7.89;44.18
40490;BME280;26196;52.302;10.572;2023-02-28T07:33:53;102263.25;;;7.91;44.11
40490;BME280;26196;52.302;10.572;2023-02-28T07:37:54;102258.00;;;7.89;44.24
40490;BME280;26196;52.302;10.572;2023-02-28T07:41:54;102249.31;;;7.89;44.59
40490;BME280;26196;52.302;10.572;2023-02-28T07:45:54;102255.47;;;7.93;44.67
40490;BME280;26196;52.302;10.572;2023-02-28T07:49:55;102257.16;;;7.91;44.37
40490;BME280;26196;52.302;10.572;2023-02-28T07:53:56;102268.50;;;7.94;44.70
40490;BME280;26196;52.302;10.572;2023-02-28T07:57:57;102262.41;;;7.94;44.26
40490;BME280;26196;52.302;10.572;2023-02-28T08:01:58;102272.03;;;7.98;44.89
40490;BME280;26196;52.302;10.572;2023-02-28T08:05:59;102262.38;;;7.91;44.72
40490;BME280;26196;52.302;10.572;2023-02-28T08:09:59;102265.06;;;7.95;44.18
40490;BME280;26196;52.302;10.572;2023-02-28T08:14:00;102254.50;;;7.86;44.66
40490;BME280;26196;52.302;10.572;2023-02-28T08:18:00;102259.75;;;7.87;44.89
40490;BME280;26196;52.302;10.572;2023-02-28T08:22:01;102274.59;;;7.95;44.53
40490;BME280;26196;52.302;10.572;2023-02-28T08:26:01;102270.25;;;7.94;44.54
40490;BME280;26196;52.302;10.572;2023-02-28T08:30:02;102273.72;;;7.93;44.36
40490;BME280;26196;52.302;10.572;2023-02-28T08:34:12;102275.44;;;7.94;44.62
40490;BME280;26196;52.302;10.572;2023-02-28T08:38:12;102264.97;;;7.89;44.98
40490;BME280;26196;52.302;10.572;2023-02-28T08:42:13;102262.38;;;7.91;44.81
40490;BME280;26196;52.302;10.572;2023-02-28T08:46:13;102266.72;;;7.90;45.14
40490;BME280;26196;52.302;10.572;2023-02-28T08:50:14;102266.72;;;7.92;45.20
40490;BME280;26196;52.302;10.572;2023-02-28T08:54:14;102277.19;;;7.93;44.86
40490;BME280;26196;52.302;10.572;2023-02-28T08:58:19;102266.78;;;7.96;45.26
40490;BME280;26196;52.302;10.572;2023-02-28T09:02:19;102272.91;;;8.00;45.16
40490;BME280;26196;52.302;10.572;2023-02-28T09:06:21;102278.16;;;8.03;45.37
40490;BME280;26196;52.302;10.572;2023-02-28T09:10:21;102274.69;;;8.02;45.31
40490;BME280;26196;52.302;10.572;2023-02-28T09:14:22;102277.28;;;8.01;45.87
40490;BME280;26196;52.302;10.572;2023-02-28T09:18:22;102265.91;;;7.94;45.53
40490;BME280;26196;52.302;10.572;2023-02-28T09:22:22;102273.88;;;8.06;45.85
40490;BME280;26196;52.302;10.572;2023-02-28T09:26:25;102279.13;;;8.09;46.17
40490;BME280;26196;52.302;10.572;2023-02-28T09:30:25;102276.47;;;8.08;46.05
40490;BME280;26196;52.302;10.572;2023-02-28T09:34:27;102281.69;;;8.08;45.70
40490;BME280;26196;52.302;10.572;2023-02-28T09:38:28;102278.28;;;8.12;45.94
40490;BME280;26196;52.302;10.572;2023-02-28T09:42:32;102276.56;;;8.14;46.23
40490;BME280;26196;52.302;10.572;2023-02-28T09:46:37;102265.16;;;8.04;46.57
40490;BME280;26196;52.302;10.572;2023-02-28T09:50:46;102278.28;;;8.12;46.54
40490;BME280;26196;52.302;10.572;2023-02-28T09:54:48;102281.88;;;8.23;47.04
40490;BME280;26196;52.302;10.572;2023-02-28T09:59:00;102290.59;;;8.25;46.58
40490;BME280;26196;52.302;10.572;2023-02-28T10:03:21;102283.69;;;8.30;46.50
40490;BME280;26196;52.302;10.572;2023-02-28T10:11:52;102272.38;;;8.31;47.95
40490;BME280;26196;52.302;10.572;2023-02-28T10:16:22;102275.06;;;8.35;48.53
40490;BME280;26196;52.302;10.572;2023-02-28T10:20:22;102289.06;;;8.43;48.71
40490;BME280;26196;52.302;10.572;2023-02-28T10:24:36;102279.53;;;8.45;48.70
40490;BME280;26196;52.302;10.572;2023-02-28T10:28:39;102291.78;;;8.53;48.84
40490;BME280;26196;52.302;10.572;2023-02-28T10:32:47;102275.25;;;8.50;48.46
40490;BME280;26196;52.302;10.572;2023-02-28T10:36:50;102272.63;;;8.50;48.43
40490;BME280;26196;52.302;10.572;2023-02-28T10:40:50;102279.63;;;8.56;48.82
40490;BME280;26196;52.302;10.572;2023-02-28T10:49:19;102278.00;;;8.67;48.83
40490;BME280;26196;52.302;10.572;2023-02-28T10:58:24;102268.41;;;8.67;47.59
40490;BME280;26196;52.302;10.572;2023-02-28T11:02:34;102265.03;;;8.81;48.57
40490;BME280;26196;52.302;10.572;2023-02-28T11:06:35;102259.00;;;8.86;48.70
40490;BME280;26196;52.302;10.572;2023-02-28T11:10:35;102264.28;;;8.92;48.73
40490;BME280;26196;52.302;10.572;2023-02-28T11:14:42;102258.22;;;8.95;48.28
40490;BME280;26196;52.302;10.572;2023-02-28T11:18:51;102259.16;;;9.09;47.93
40490;BME280;26196;52.302;10.572;2023-02-28T11:22:53;102225.16;;;8.97;48.59
40490;BME280;26196;52.302;10.572;2023-02-28T11:26:55;102226.06;;;9.04;47.99
40490;BME280;26196;52.302;10.572;2023-02-28T11:35:27;102240.97;;;9.18;48.24
40490;BME280;26196;52.302;10.572;2023-02-28T11:39:29;102245.34;;;9.24;48.59
40490;BME280;26196;52.302;10.572;2023-02-28T11:51:50;102226.25;;;9.37;48.08
40490;BME280;26196;52.302;10.572;2023-02-28T12:25:51;102220.28;;;9.57;52.60
40490;BME280;26196;52.302;10.572;2023-02-28T12:30:00;102223.78;;;9.62;51.77
40490;BME280;26196;52.302;10.572;2023-02-28T12:34:07;102224.63;;;9.61;51.33
40490;BME280;26196;52.302;10.572;2023-02-28T12:38:18;102205.47;;;9.62;51.22
40490;BME280;26196;52.302;10.572;2023-02-28T12:42:30;102169.66;;;9.42;51.20
40490;BME280;26196;52.302;10.572;2023-02-28T12:46:35;102202.00;;;9.68;50.63
40490;BME280;26196;52.302;10.572;2023-02-28T12:50:37;102198.50;;;9.67;50.84
40490;BME280;26196;52.302;10.572;2023-02-28T12:58:53;102180.19;;;9.66;50.47
40490;BME280;26196;52.302;10.572;2023-02-28T13:11:52;102161.06;;;9.73;50.86
40490;BME280;26196;52.302;10.572;2023-02-28T13:16:19;102152.34;;;9.80;50.90
40490;BME280;26196;52.302;10.572;2023-02-28T13:20:25;102142.78;;;9.80;50.42
40490;BME280;26196;52.302;10.572;2023-02-28T13:24:46;102147.13;;;9.83;50.71
40490;BME280;26196;52.302;10.572;2023-02-28T13:45:37;102150.63;;;9.91;49.96
40490;BME280;26196;52.302;10.572;2023-02-28T13:49:40;102154.09;;;9.90;49.85
40490;BME280;26196;52.302;10.572;2023-02-28T13:53:58;102149.75;;;9.88;49.22
40490;BME280;26196;52.302;10.572;2023-02-28T14:06:51;102154.13;;;9.95;49.26
40490;BME280;26196;52.302;10.572;2023-02-28T14:11:05;102152.38;;;9.95;48.98
40490;BME280;26196;52.302;10.572;2023-02-28T14:19:36;102155.88;;;10.00;49.28
40490;BME280;26196;52.302;10.572;2023-02-28T14:28:41;102131.44;;;9.95;49.40
40490;BME280;26196;52.302;10.572;2023-02-28T14:32:54;102141.06;;;10.05;49.41
40490;BME280;26196;52.302;10.572;2023-02-28T14:37:00;102143.66;;;10.08;49.05
40490;BME280;26196;52.302;10.572;2023-02-28T14:41:06;102127.97;;;10.02;49.45
40490;BME280;26196;52.302;10.572;2023-02-28T14:45:20;102129.72;;;10.10;49.57
40490;BME280;26196;52.302;10.572;2023-02-28T14:49:27;102130.63;;;10.12;49.90
40490;BME280;26196;52.302;10.572;2023-02-28T14:53:30;102133.22;;;10.15;50.01
40490;BME280;26196;52.302;10.572;2023-02-28T14:57:40;102121.88;;;10.13;49.84
40490;BME280;26196;52.302;10.572;2023-02-28T15:01:42;102092.22;;;10.01;49.94
40490;BME280;26196;52.302;10.572;2023-02-28T15:05:51;102103.56;;;10.13;49.64
40490;BME280;26196;52.302;10.572;2023-02-28T15:14:21;102121.00;;;10.23;49.72
40490;BME280;26196;52.302;10.572;2023-02-28T15:22:31;102112.28;;;10.24;49.06
40490;BME280;26196;52.302;10.572;2023-02-28T15:27:03;102115.78;;;10.26;49.33
40490;BME280;26196;52.302;10.572;2023-02-28T15:31:21;102113.16;;;10.24;49.82
40490;BME280;26196;52.302;10.572;2023-02-28T15:35:29;102108.78;;;10.22;49.97
40490;BME280;26196;52.302;10.572;2023-02-28T15:39:31;102107.03;;;10.24;49.97
40490;BME280;26196;52.302;10.572;2023-02-28T15:43:40;102109.66;;;10.24;49.99
40490;BME280;26196;52.302;10.572;2023-02-28T15:47:45;102124.53;;;10.34;49.67
40490;BME280;26196;52.302;10.572;2023-02-28T15:51:50;102120.16;;;10.32;49.78
40490;BME280;26196;52.302;10.572;2023-02-28T15:55:56;102095.72;;;10.20;50.08
40490;BME280;26196;52.302;10.572;2023-02-28T16:00:01;102116.66;;;10.34;49.37
40490;BME280;26196;52.302;10.572;2023-02-28T16:04:15;102128.88;;;10.40;48.98
40490;BME280;26196;52.302;10.572;2023-02-28T16:08:16;102120.19;;;10.41;50.04
40490;BME280;26196;52.302;10.572;2023-02-28T16:12:16;102113.19;;;10.35;49.93
40490;BME280;26196;52.302;10.572;2023-02-28T16:16:33;102120.16;;;10.42;49.81
40490;BME280;26196;52.302;10.572;2023-02-28T16:20:33;102125.41;;;10.44;49.65
40490;BME280;26196;52.302;10.572;2023-02-28T16:24:38;102127.13;;;10.45;50.45
40490;BME280;26196;52.302;10.572;2023-02-28T16:28:41;102119.31;;;10.43;50.71
40490;BME280;26196;52.302;10.572;2023-02-28T16:32:43;102116.66;;;10.42;50.30
40490;BME280;26196;52.302;10.572;2023-02-28T16:36:46;102129.75;;;10.46;50.59
40490;BME280;26196;52.302;10.572;2023-02-28T16:40:55;102130.59;;;10.53;50.54
40490;BME280;26196;52.302;10.572;2023-02-28T16:44:56;102126.25;;;10.50;50.54
40490;BME280;26196;52.302;10.572;2023-02-28T16:48:56;102129.75;;;10.51;50.48
40490;BME280;26196;52.302;10.572;2023-02-28T16:53:03;102137.59;;;10.52;50.47
40490;BME280;26196;52.302;10.572;2023-02-28T16:57:07;102134.97;;;10.52;50.37
40490;BME280;26196;52.302;10.572;2023-02-28T17:01:14;102139.38;;;10.54;50.54
40490;BME280;26196;52.302;10.572;2023-02-28T17:05:14;102135.84;;;10.50;50.29
40490;BME280;26196;52.302;10.572;2023-02-28T17:09:26;102143.72;;;10.51;49.94
40490;BME280;26196;52.302;10.572;2023-02-28T17:13:27;102152.47;;;10.54;50.60
40490;BME280;26196;52.302;10.572;2023-02-28T17:17:28;102130.66;;;10.41;50.14
40490;BME280;26196;52.302;10.572;2023-02-28T17:21:31;102151.56;;;10.55;50.17
40490;BME280;26196;52.302;10.572;2023-02-28T17:25:48;102155.94;;;10.57;49.23
40490;BME280;26196;52.302;10.572;2023-02-28T17:29:53;102148.97;;;10.51;49.82
40490;BME280;26196;52.302;10.572;2023-02-28T17:33:53;102141.09;;;10.50;49.38
40490;BME280;26196;52.302;10.572;2023-02-28T17:37:56;102135.88;;;10.38;50.00
40490;BME280;26196;52.302;10.572;2023-02-28T17:41:59;102139.34;;;10.40;49.12
40490;BME280;26196;52.302;10.572;2023-02-28T17:46:20;102158.53;;;10.52;49.08
40490;BME280;26196;52.302;10.572;2023-02-28T17:50:21;102162.91;;;10.57;48.89
40490;BME280;26196;52.302;10.572;2023-02-28T17:54:27;102156.81;;;10.48;48.94
40490;BME280;26196;52.302;10.572;2023-02-28T17:58:34;102173.41;;;10.57;49.71
40490;BME280;26196;52.302;10.572;2023-02-28T18:02:43;102175.13;;;10.55;49.31
40490;BME280;26196;52.302;10.572;2023-02-28T18:06:44;102181.25;;;10.57;48.13
40490;BME280;26196;52.302;10.572;2023-02-28T18:11:03;102185.59;;;10.55;48.47
40490;BME280;26196;52.302;10.572;2023-02-28T18:15:07;102171.66;;;10.43;48.82
40490;BME280;26196;52.302;10.572;2023-02-28T18:19:11;102169.91;;;10.47;47.61
40490;BME280;26196;52.302;10.572;2023-02-28T18:23:16;102172.53;;;10.51;48.43
40490;BME280;26196;52.302;10.572;2023-02-28T18:27:29;102176.88;;;10.56;48.38
40490;BME280;26196;52.302;10.572;2023-02-28T18:31:29;102189.09;;;10.55;48.21
40490;BME280;26196;52.302;10.572;2023-02-28T18:35:31;102189.09;;;10.52;48.15
40490;BME280;26196;52.302;10.572;2023-02-28T18:39:35;102186.47;;;10.52;47.86
40490;BME280;26196;52.302;10.572;2023-02-28T18:43:36;102184.72;;;10.52;48.00
40490;BME280;26196;52.302;10.572;2023-02-28T18:47:46;102187.34;;;10.52;47.78
40490;BME280;26196;52.302;10.572;2023-02-28T18:51:48;102175.13;;;10.51;47.62
40490;BME280;26196;52.302;10.572;2023-02-28T18:56:01;102172.53;;;10.51;47.53
40490;BME280;26196;52.302;10.572;2023-02-28T19:00:02;102162.91;;;10.47;47.94
40490;BME280;26196;52.302;10.572;2023-02-28T19:04:03;102164.69;;;10.45;47.65
40490;BME280;26196;52.302;10.572;2023-02-28T19:08:04;102162.03;;;10.42;47.47
40490;BME280;26196;52.302;10.572;2023-02-28T19:12:05;102163.78;;;10.46;47.29
40490;BME280;26196;52.302;10.572;2023-02-28T19:16:06;102143.69;;;10.27;47.59
40490;BME280;26196;52.302;10.572;2023-02-28T19:20:44;102173.38;;;10.44;46.87
40490;BME280;26196;52.302;10.572;2023-02-28T19:24:52;102167.28;;;10.42;46.66
40490;BME280;26196;52.302;10.572;2023-02-28T19:28:52;102155.94;;;10.36;46.54
40490;BME280;26196;52.302;10.572;2023-02-28T19:32:52;102163.78;;;10.39;46.53
40490;BME280;26196;52.302;10.572;2023-02-28T19:36:53;102173.38;;;10.44;46.80
40490;BME280;26196;52.302;10.572;2023-02-28T19:41:05;102172.50;;;10.36;46.28
40490;BME280;26196;52.302;10.572;2023-02-28T19:45:06;102168.16;;;10.29;46.83
40490;BME280;26196;52.302;10.572;2023-02-28T19:49:09;102177.75;;;10.35;46.19
40490;BME280;26196;52.302;10.572;2023-02-28T19:53:09;102181.25;;;10.34;45.84
40490;BME280;26196;52.302;10.572;2023-02-28T19:57:09;102179.50;;;10.33;45.70
40490;BME280;26196;52.302;10.572;2023-02-28T20:01:15;102187.34;;;10.37;45.58
40490;BME280;26196;52.302;10.572;2023-02-28T20:05:25;102181.25;;;10.31;46.02
40490;BME280;26196;52.302;10.572;2023-02-28T20:09:29;102189.09;;;10.37;45.43
40490;BME280;26196;52.302;10.572;2023-02-28T20:13:30;102175.97;;;10.23;45.97
40490;BME280;26196;52.302;10.572;2023-02-28T20:17:31;102182.09;;;10.31;44.89
40490;BME280;26196;52.302;10.572;2023-02-28T20:21:33;102180.31;;;10.18;44.91
40490;BME280;26196;52.302;10.572;2023-02-28T20:25:37;102196.94;;;10.29;44.24
40490;BME280;26196;52.302;10.572;2023-02-28T20:29:38;102196.88;;;10.24;44.85
40490;BME280;26196;52.302;10.572;2023-02-28T20:33:42;102191.66;;;10.21;44.62
40490;BME280;26196;52.302;10.572;2023-02-28T20:37:43;102197.75;;;10.22;44.67
40490;BME280;26196;52.302;10.572;2023-02-28T20:41:43;102197.75;;;10.19;44.84
40490;BME280;26196;52.302;10.572;2023-02-28T20:45:51;102202.13;;;10.21;44.62
40490;BME280;26196;52.302;10.572;2023-02-28T20:49:52;102199.50;;;10.14;44.85
40490;BME280;26196;52.302;10.572;2023-02-28T20:53:52;102195.13;;;10.05;44.04
40490;BME280;26196;52.302;10.572;2023-02-28T20:58:06;102189.91;;;10.05;44.45
40490;BME280;26196;52.302;10.572;2023-02-28T21:02:21;102202.06;;;9.98;44.45
40490;BME280;26196;52.302;10.572;2023-02-28T21:06:23;102201.22;;;10.02;44.06
40490;BME280;26196;52.302;10.572;2023-02-28T21:10:26;102209.91;;;9.95;44.64
40490;BME280;26196;52.302;10.572;2023-02-28T21:14:26;102200.34;;;9.97;44.12
40490;BME280;26196;52.302;10.572;2023-02-28T21:18:57;102201.22;;;9.96;44.06
40490;BME280;26196;52.302;10.572;2023-02-28T21:23:03;102203.81;;;9.93;44.52
40490;BME280;26196;52.302;10.572;2023-02-28T21:27:03;102202.06;;;9.89;44.05
40490;BME280;26196;52.302;10.572;2023-02-28T21:31:10;102194.22;;;9.86;44.38
40490;BME280;26196;52.302;10.572;2023-02-28T21:35:11;102199.44;;;9.83;44.05
40490;BME280;26196;52.302;10.572;2023-02-28T21:39:29;102188.06;;;9.70;44.47
40490;BME280;26196;52.302;10.572;2023-02-28T21:43:32;102192.41;;;9.70;44.27
40490;BME280;26196;52.302;10.572;2023-02-28T21:47:32;102197.63;;;9.63;43.83
40490;BME280;26196;52.302;10.572;2023-02-28T21:51:33;102197.63;;;9.60;43.78
40490;BME280;26196;52.302;10.572;2023-02-28T21:55:34;102196.72;;;9.55;44.02
40490;BME280;26196;52.302;10.572;2023-02-28T21:59:35;102171.41;;;9.51;43.68
40490;BME280;26196;52.302;10.572;2023-02-28T22:03:39;102189.75;;;9.56;43.99
40490;BME280;26196;52.302;10.572;2023-02-28T22:07:40;102167.94;;;9.48;43.80
40490;BME280;26196;52.302;10.572;2023-02-28T22:11:41;102178.41;;;9.52;43.55
40490;BME280;26196;52.302;10.572;2023-02-28T22:15:47;102180.16;;;9.52;44.16
40490;BME280;26196;52.302;10.572;2023-02-28T22:19:47;102176.63;;;9.45;43.04
40490;BME280;26196;52.302;10.572;2023-02-28T22:23:57;102175.75;;;9.46;43.25
40490;BME280;26196;52.302;10.572;2023-02-28T22:27:57;102165.31;;;9.41;42.81
40490;BME280;26196;52.302;10.572;2023-02-28T22:31:58;102160.94;;;9.40;43.14
40490;BME280;26196;52.302;10.572;2023-02-28T22:36:05;102172.25;;;9.39;42.97
40490;BME280;26196;52.302;10.572;2023-02-28T22:40:07;102176.63;;;9.36;42.34
40490;BME280;26196;52.302;10.572;2023-02-28T22:44:09;102175.69;;;9.26;42.62
40490;BME280;26196;52.302;10.572;2023-02-28T22:48:29;102169.56;;;9.23;42.76
40490;BME280;26196;52.302;10.572;2023-02-28T22:52:29;102140.72;;;9.04;43.09
40490;BME280;26196;52.302;10.572;2023-02-28T22:56:30;102163.41;;;9.14;42.72
40490;BME280;26196;52.302;10.572;2023-02-28T23:00:31;102173.88;;;9.17;42.27
40490;BME280;26196;52.302;10.572;2023-02-28T23:04:31;102172.13;;;9.13;42.82
40490;BME280;26196;52.302;10.572;2023-02-28T23:08:35;102172.97;;;9.12;42.63
40490;BME280;26196;52.302;10.572;2023-02-28T23:12:35;102181.72;;;9.16;42.75
40490;BME280;26196;52.302;10.572;2023-02-28T23:16:45;102179.91;;;9.04;41.70
40490;BME280;26196;52.302;10.572;2023-02-28T23:20:46;102193.88;;;9.08;42.26
40490;BME280;26196;52.302;10.572;2023-02-28T23:24:46;102186.88;;;9.02;42.19
40490;BME280;26196;52.302;10.572;2023-02-28T23:28:48;102186.00;;;9.00;42.07
40490;BME280;26196;52.302;10.572;2023-02-28T23:32:48;102179.91;;;9.00;41.87
40490;BME280;26196;52.302;10.572;2023-02-28T23:36:49;102192.06;;;8.97;41.74
40490;BME280;26196;52.302;10.572;2023-02-28T23:40:50;102175.44;;;8.86;42.17